sensor_id;sensor_type;location;lat;lon;timestamp;P1;durP1;ratioP1;P2;durP2;ratioP2
31746;SDS011;18319;48.974;8.462;2023-02-26T00:01:14;1.43;;;1.23;;
31746;SDS011;18319;48.974;8.462;2023-02-26T00:03:46;1.87;;;1.50;;
31746;SDS011;18319;48.974;8.462;2023-02-26T00:06:14;1.17;;;1.17;;
31746;SDS011;18319;48.974;8.462;2023-02-26T00:08:40;2.00;;;1.50;;
31746;SDS011;18319;48.974;8.462;2023-02-26T00:11:08;1.67;;;1.57;;
31746;SDS011;18319;48.974;8.462;2023-02-26T00:13:36;1.70;;;1.60;;
31746;SDS011;18319;48.974;8.462;2023-02-26T00:16:08;2.30;;;1.40;;
31746;SDS011;18319;48.974;8.462;2023-02-26T00:18:39;2.13;;;1.50;;
31746;SDS011;18319;48.974;8.462;2023-02-26T00:21:08;2.50;;;1.23;;
31746;SDS011;18319;48.974;8.462;2023-02-26T00:23:41;2.27;;;1.60;;
31746;SDS011;18319;48.974;8.462;2023-02-26T00:26:08;1.83;;;1.23;;
31746;SDS011;18319;48.974;8.462;2023-02-26T00:28:35;1.47;;;1.37;;
31746;SDS011;18319;48.974;8.462;2023-02-26T00:31:03;2.93;;;1.40;;
31746;SDS011;18319;48.974;8.462;2023-02-26T00:33:31;2.20;;;1.60;;
31746;SDS011;18319;48.974;8.462;2023-02-26T00:36:00;1.50;;;1.40;;
31746;SDS011;18319;48.974;8.462;2023-02-26T00:38:46;1.90;;;1.70;;
31746;SDS011;18319;48.974;8.462;2023-02-26T00:41:22;2.40;;;1.80;;
31746;SDS011;18319;48.974;8.462;2023-02-26T00:43:50;2.10;;;1.53;;
31746;SDS011;18319;48.974;8.462;2023-02-26T00:46:18;3.83;;;1.70;;
31746;SDS011;18319;48.974;8.462;2023-02-26T00:48:54;1.67;;;1.57;;
31746;SDS011;18319;48.974;8.462;2023-02-26T00:51:27;2.90;;;2.13;;
31746;SDS011;18319;48.974;8.462;2023-02-26T00:54:00;1.60;;;1.37;;
31746;SDS011;18319;48.974;8.462;2023-02-26T00:56:30;2.67;;;1.80;;
31746;SDS011;18319;48.974;8.462;2023-02-26T00:58:57;1.67;;;1.57;;
31746;SDS011;18319;48.974;8.462;2023-02-26T01:01:24;2.10;;;2.00;;
31746;SDS011;18319;48.974;8.462;2023-02-26T01:03:51;1.57;;;1.40;;
31746;SDS011;18319;48.974;8.462;2023-02-26T01:06:19;2.07;;;1.97;;
31746;SDS011;18319;48.974;8.462;2023-02-26T01:08:49;2.43;;;1.90;;
31746;SDS011;18319;48.974;8.462;2023-02-26T01:11:25;1.97;;;1.87;;
31746;SDS011;18319;48.974;8.462;2023-02-26T01:13:52;1.90;;;1.80;;
31746;SDS011;18319;48.974;8.462;2023-02-26T01:16:20;1.90;;;1.80;;
31746;SDS011;18319;48.974;8.462;2023-02-26T01:18:53;2.47;;;1.63;;
31746;SDS011;18319;48.974;8.462;2023-02-26T01:21:25;2.87;;;1.67;;
31746;SDS011;18319;48.974;8.462;2023-02-26T01:23:56;2.03;;;1.83;;
31746;SDS011;18319;48.974;8.462;2023-02-26T01:26:27;2.30;;;1.80;;
31746;SDS011;18319;48.974;8.462;2023-02-26T01:28:54;1.77;;;1.67;;
31746;SDS011;18319;48.974;8.462;2023-02-26T01:31:25;3.70;;;2.07;;
31746;SDS011;18319;48.974;8.462;2023-02-26T01:33:59;2.20;;;2.00;;
31746;SDS011;18319;48.974;8.462;2023-02-26T01:36:32;3.67;;;1.70;;
31746;SDS011;18319;48.974;8.462;2023-02-26T01:39:05;1.90;;;1.57;;
31746;SDS011;18319;48.974;8.462;2023-02-26T01:41:39;2.57;;;1.57;;
31746;SDS011;18319;48.974;8.462;2023-02-26T01:44:12;2.27;;;1.60;;
31746;SDS011;18319;48.974;8.462;2023-02-26T01:46:51;4.30;;;1.80;;
31746;SDS011;18319;48.974;8.462;2023-02-26T01:49:30;1.80;;;1.70;;
31746;SDS011;18319;48.974;8.462;2023-02-26T01:51:57;1.63;;;1.50;;
31746;SDS011;18319;48.974;8.462;2023-02-26T01:54:27;1.77;;;1.67;;
31746;SDS011;18319;48.974;8.462;2023-02-26T01:56:58;1.67;;;1.57;;
31746;SDS011;18319;48.974;8.462;2023-02-26T01:59:29;2.50;;;1.50;;
31746;SDS011;18319;48.974;8.462;2023-02-26T02:01:56;1.60;;;1.50;;
31746;SDS011;18319;48.974;8.462;2023-02-26T02:04:24;3.07;;;1.63;;
31746;SDS011;18319;48.974;8.462;2023-02-26T02:06:52;2.33;;;1.50;;
31746;SDS011;18319;48.974;8.462;2023-02-26T02:09:19;2.00;;;1.63;;
31746;SDS011;18319;48.974;8.462;2023-02-26T02:12:00;2.20;;;1.53;;
31746;SDS011;18319;48.974;8.462;2023-02-26T02:14:36;1.50;;;1.40;;
31746;SDS011;18319;48.974;8.462;2023-02-26T02:17:12;1.60;;;1.50;;
31746;SDS011;18319;48.974;8.462;2023-02-26T02:20:09;2.07;;;1.50;;
31746;SDS011;18319;48.974;8.462;2023-02-26T02:23:09;2.63;;;1.50;;
31746;SDS011;18319;48.974;8.462;2023-02-26T02:26:08;1.70;;;1.60;;
31746;SDS011;18319;48.974;8.462;2023-02-26T02:28:50;3.20;;;1.73;;
31746;SDS011;18319;48.974;8.462;2023-02-26T02:31:33;2.87;;;1.70;;
31746;SDS011;18319;48.974;8.462;2023-02-26T02:34:08;1.60;;;1.50;;
31746;SDS011;18319;48.974;8.462;2023-02-26T02:36:40;1.50;;;1.37;;
31746;SDS011;18319;48.974;8.462;2023-02-26T02:39:12;1.33;;;1.33;;
31746;SDS011;18319;48.974;8.462;2023-02-26T02:41:45;3.17;;;1.23;;
31746;SDS011;18319;48.974;8.462;2023-02-26T02:44:18;1.63;;;1.53;;
31746;SDS011;18319;48.974;8.462;2023-02-26T02:46:50;1.40;;;1.30;;
31746;SDS011;18319;48.974;8.462;2023-02-26T02:49:20;1.23;;;1.17;;
31746;SDS011;18319;48.974;8.462;2023-02-26T02:51:50;1.33;;;1.23;;
31746;SDS011;18319;48.974;8.462;2023-02-26T02:54:21;1.63;;;1.23;;
31746;SDS011;18319;48.974;8.462;2023-02-26T02:56:52;1.57;;;1.37;;
31746;SDS011;18319;48.974;8.462;2023-02-26T02:59:21;2.27;;;1.90;;
31746;SDS011;18319;48.974;8.462;2023-02-26T03:01:55;1.23;;;1.10;;
31746;SDS011;18319;48.974;8.462;2023-02-26T03:04:29;2.53;;;1.63;;
31746;SDS011;18319;48.974;8.462;2023-02-26T03:06:56;2.83;;;1.50;;
31746;SDS011;18319;48.974;8.462;2023-02-26T03:09:22;2.03;;;1.87;;
31746;SDS011;18319;48.974;8.462;2023-02-26T03:11:49;1.87;;;1.77;;
31746;SDS011;18319;48.974;8.462;2023-02-26T03:14:16;2.03;;;1.93;;
31746;SDS011;18319;48.974;8.462;2023-02-26T03:16:48;2.47;;;1.70;;
31746;SDS011;18319;48.974;8.462;2023-02-26T03:19:28;2.53;;;1.87;;
31746;SDS011;18319;48.974;8.462;2023-02-26T03:22:02;2.77;;;2.10;;
31746;SDS011;18319;48.974;8.462;2023-02-26T03:24:34;1.93;;;1.83;;
31746;SDS011;18319;48.974;8.462;2023-02-26T03:27:06;1.27;;;1.27;;
31746;SDS011;18319;48.974;8.462;2023-02-26T03:29:39;1.67;;;1.57;;
31746;SDS011;18319;48.974;8.462;2023-02-26T03:32:13;3.77;;;1.63;;
31746;SDS011;18319;48.974;8.462;2023-02-26T03:34:46;1.83;;;1.73;;
31746;SDS011;18319;48.974;8.462;2023-02-26T03:37:19;4.03;;;2.53;;
31746;SDS011;18319;48.974;8.462;2023-02-26T03:39:52;1.60;;;1.50;;
31746;SDS011;18319;48.974;8.462;2023-02-26T03:42:23;2.70;;;1.93;;
31746;SDS011;18319;48.974;8.462;2023-02-26T03:44:54;2.37;;;2.03;;
31746;SDS011;18319;48.974;8.462;2023-02-26T03:47:24;2.67;;;1.50;;
31746;SDS011;18319;48.974;8.462;2023-02-26T03:49:54;2.07;;;1.90;;
31746;SDS011;18319;48.974;8.462;2023-02-26T03:52:28;2.10;;;2.00;;
31746;SDS011;18319;48.974;8.462;2023-02-26T03:54:58;2.80;;;2.47;;
31746;SDS011;18319;48.974;8.462;2023-02-26T03:57:28;3.07;;;2.00;;
31746;SDS011;18319;48.974;8.462;2023-02-26T03:59:55;2.37;;;1.83;;
31746;SDS011;18319;48.974;8.462;2023-02-26T04:02:24;1.93;;;1.83;;
31746;SDS011;18319;48.974;8.462;2023-02-26T04:04:58;1.97;;;1.87;;
31746;SDS011;18319;48.974;8.462;2023-02-26T04:07:26;1.77;;;1.63;;
31746;SDS011;18319;48.974;8.462;2023-02-26T04:09:54;2.40;;;1.63;;
31746;SDS011;18319;48.974;8.462;2023-02-26T04:12:22;2.10;;;1.83;;
31746;SDS011;18319;48.974;8.462;2023-02-26T04:14:50;2.73;;;2.03;;
31746;SDS011;18319;48.974;8.462;2023-02-26T04:17:17;1.67;;;1.57;;
31746;SDS011;18319;48.974;8.462;2023-02-26T04:19:45;4.93;;;1.90;;
31746;SDS011;18319;48.974;8.462;2023-02-26T04:22:12;2.57;;;1.53;;
31746;SDS011;18319;48.974;8.462;2023-02-26T04:24:39;1.40;;;1.40;;
31746;SDS011;18319;48.974;8.462;2023-02-26T04:27:06;2.17;;;1.67;;
31746;SDS011;18319;48.974;8.462;2023-02-26T04:29:33;5.13;;;2.40;;
31746;SDS011;18319;48.974;8.462;2023-02-26T04:31:59;2.00;;;1.70;;
31746;SDS011;18319;48.974;8.462;2023-02-26T04:34:26;2.47;;;2.27;;
31746;SDS011;18319;48.974;8.462;2023-02-26T04:36:54;2.10;;;1.97;;
31746;SDS011;18319;48.974;8.462;2023-02-26T04:39:22;5.93;;;1.40;;
31746;SDS011;18319;48.974;8.462;2023-02-26T04:41:48;1.97;;;1.43;;
31746;SDS011;18319;48.974;8.462;2023-02-26T04:44:15;4.33;;;2.03;;
31746;SDS011;18319;48.974;8.462;2023-02-26T04:46:42;2.20;;;2.00;;
31746;SDS011;18319;48.974;8.462;2023-02-26T04:49:09;4.03;;;2.00;;
31746;SDS011;18319;48.974;8.462;2023-02-26T04:51:36;2.93;;;2.10;;
31746;SDS011;18319;48.974;8.462;2023-02-26T04:54:04;3.53;;;2.10;;
31746;SDS011;18319;48.974;8.462;2023-02-26T04:56:31;2.20;;;2.00;;
31746;SDS011;18319;48.974;8.462;2023-02-26T04:58:58;3.10;;;2.30;;
31746;SDS011;18319;48.974;8.462;2023-02-26T05:01:24;2.10;;;1.77;;
31746;SDS011;18319;48.974;8.462;2023-02-26T05:03:51;2.00;;;1.77;;
31746;SDS011;18319;48.974;8.462;2023-02-26T05:06:18;4.27;;;2.00;;
31746;SDS011;18319;48.974;8.462;2023-02-26T05:08:45;2.00;;;1.80;;
31746;SDS011;18319;48.974;8.462;2023-02-26T05:11:13;2.60;;;2.00;;
31746;SDS011;18319;48.974;8.462;2023-02-26T05:13:40;2.53;;;1.80;;
31746;SDS011;18319;48.974;8.462;2023-02-26T05:16:07;3.00;;;1.90;;
31746;SDS011;18319;48.974;8.462;2023-02-26T05:18:34;3.57;;;1.70;;
31746;SDS011;18319;48.974;8.462;2023-02-26T05:21:01;3.17;;;1.90;;
31746;SDS011;18319;48.974;8.462;2023-02-26T05:23:29;1.93;;;1.60;;
31746;SDS011;18319;48.974;8.462;2023-02-26T05:25:56;3.70;;;1.97;;
31746;SDS011;18319;48.974;8.462;2023-02-26T05:28:25;2.53;;;1.70;;
31746;SDS011;18319;48.974;8.462;2023-02-26T05:30:52;1.80;;;1.50;;
31746;SDS011;18319;48.974;8.462;2023-02-26T05:33:20;1.80;;;1.63;;
31746;SDS011;18319;48.974;8.462;2023-02-26T05:35:47;2.37;;;1.50;;
31746;SDS011;18319;48.974;8.462;2023-02-26T05:38:14;1.93;;;1.73;;
31746;SDS011;18319;48.974;8.462;2023-02-26T05:40:41;2.37;;;1.60;;
31746;SDS011;18319;48.974;8.462;2023-02-26T05:43:08;1.47;;;1.37;;
31746;SDS011;18319;48.974;8.462;2023-02-26T05:45:36;2.07;;;1.77;;
31746;SDS011;18319;48.974;8.462;2023-02-26T05:48:03;4.07;;;2.00;;
31746;SDS011;18319;48.974;8.462;2023-02-26T05:50:30;4.40;;;1.67;;
31746;SDS011;18319;48.974;8.462;2023-02-26T05:52:56;2.20;;;2.07;;
31746;SDS011;18319;48.974;8.462;2023-02-26T05:57:59;1.63;;;1.53;;
31746;SDS011;18319;48.974;8.462;2023-02-26T06:00:26;1.70;;;1.60;;
31746;SDS011;18319;48.974;8.462;2023-02-26T06:02:54;2.97;;;1.90;;
31746;SDS011;18319;48.974;8.462;2023-02-26T06:05:21;3.73;;;1.63;;
31746;SDS011;18319;48.974;8.462;2023-02-26T06:07:48;3.87;;;2.07;;
31746;SDS011;18319;48.974;8.462;2023-02-26T06:10:15;5.27;;;1.90;;
31746;SDS011;18319;48.974;8.462;2023-02-26T06:12:42;2.43;;;2.23;;
31746;SDS011;18319;48.974;8.462;2023-02-26T06:15:09;2.50;;;2.10;;
31746;SDS011;18319;48.974;8.462;2023-02-26T06:17:36;3.73;;;2.07;;
31746;SDS011;18319;48.974;8.462;2023-02-26T06:20:06;2.93;;;1.97;;
31746;SDS011;18319;48.974;8.462;2023-02-26T06:22:34;1.80;;;1.70;;
31746;SDS011;18319;48.974;8.462;2023-02-26T06:25:01;2.70;;;2.37;;
31746;SDS011;18319;48.974;8.462;2023-02-26T06:27:28;2.97;;;1.57;;
31746;SDS011;18319;48.974;8.462;2023-02-26T06:29:55;2.03;;;1.83;;
31746;SDS011;18319;48.974;8.462;2023-02-26T06:32:21;5.30;;;2.17;;
31746;SDS011;18319;48.974;8.462;2023-02-26T06:34:48;3.13;;;2.10;;
31746;SDS011;18319;48.974;8.462;2023-02-26T06:37:16;2.23;;;2.07;;
31746;SDS011;18319;48.974;8.462;2023-02-26T06:39:43;2.37;;;2.17;;
31746;SDS011;18319;48.974;8.462;2023-02-26T06:42:10;4.40;;;2.17;;
31746;SDS011;18319;48.974;8.462;2023-02-26T06:44:36;1.83;;;1.63;;
31746;SDS011;18319;48.974;8.462;2023-02-26T06:47:03;2.40;;;2.03;;
31746;SDS011;18319;48.974;8.462;2023-02-26T06:49:30;2.10;;;1.80;;
31746;SDS011;18319;48.974;8.462;2023-02-26T06:51:57;3.27;;;2.43;;
31746;SDS011;18319;48.974;8.462;2023-02-26T06:54:25;4.03;;;2.00;;
31746;SDS011;18319;48.974;8.462;2023-02-26T06:56:52;6.57;;;2.77;;
31746;SDS011;18319;48.974;8.462;2023-02-26T06:59:21;5.90;;;2.20;;
31746;SDS011;18319;48.974;8.462;2023-02-26T07:01:48;2.90;;;1.73;;
31746;SDS011;18319;48.974;8.462;2023-02-26T07:04:15;2.07;;;1.70;;
31746;SDS011;18319;48.974;8.462;2023-02-26T07:06:42;2.57;;;2.43;;
31746;SDS011;18319;48.974;8.462;2023-02-26T07:09:08;6.03;;;1.90;;
31746;SDS011;18319;48.974;8.462;2023-02-26T07:11:37;6.27;;;1.80;;
31746;SDS011;18319;48.974;8.462;2023-02-26T07:14:03;2.10;;;1.70;;
31746;SDS011;18319;48.974;8.462;2023-02-26T07:16:30;1.77;;;1.67;;
31746;SDS011;18319;48.974;8.462;2023-02-26T07:18:57;2.03;;;1.47;;
31746;SDS011;18319;48.974;8.462;2023-02-26T07:21:24;3.07;;;1.90;;
31746;SDS011;18319;48.974;8.462;2023-02-26T07:23:50;3.13;;;2.17;;
31746;SDS011;18319;48.974;8.462;2023-02-26T07:26:17;4.57;;;2.40;;
31746;SDS011;18319;48.974;8.462;2023-02-26T07:28:45;4.63;;;1.90;;
31746;SDS011;18319;48.974;8.462;2023-02-26T07:31:12;4.30;;;2.50;;
31746;SDS011;18319;48.974;8.462;2023-02-26T07:33:40;3.10;;;2.80;;
31746;SDS011;18319;48.974;8.462;2023-02-26T07:36:07;4.40;;;2.00;;
31746;SDS011;18319;48.974;8.462;2023-02-26T07:38:34;2.13;;;2.00;;
31746;SDS011;18319;48.974;8.462;2023-02-26T07:41:01;3.57;;;2.17;;
31746;SDS011;18319;48.974;8.462;2023-02-26T07:43:28;3.33;;;2.20;;
31746;SDS011;18319;48.974;8.462;2023-02-26T07:45:56;2.70;;;1.87;;
31746;SDS011;18319;48.974;8.462;2023-02-26T07:48:23;4.27;;;1.77;;
31746;SDS011;18319;48.974;8.462;2023-02-26T07:50:50;6.10;;;2.23;;
31746;SDS011;18319;48.974;8.462;2023-02-26T07:53:17;2.27;;;2.00;;
31746;SDS011;18319;48.974;8.462;2023-02-26T07:55:44;2.80;;;2.50;;
31746;SDS011;18319;48.974;8.462;2023-02-26T07:58:11;2.53;;;2.20;;
31746;SDS011;18319;48.974;8.462;2023-02-26T08:00:37;2.60;;;2.10;;
31746;SDS011;18319;48.974;8.462;2023-02-26T08:03:05;2.43;;;2.23;;
31746;SDS011;18319;48.974;8.462;2023-02-26T08:05:32;2.47;;;2.27;;
31746;SDS011;18319;48.974;8.462;2023-02-26T08:07:59;2.40;;;2.20;;
31746;SDS011;18319;48.974;8.462;2023-02-26T08:10:27;4.27;;;2.60;;
31746;SDS011;18319;48.974;8.462;2023-02-26T08:12:54;4.47;;;2.07;;
31746;SDS011;18319;48.974;8.462;2023-02-26T08:15:20;4.30;;;2.10;;
31746;SDS011;18319;48.974;8.462;2023-02-26T08:17:50;2.50;;;1.90;;
31746;SDS011;18319;48.974;8.462;2023-02-26T08:20:18;2.57;;;2.37;;
31746;SDS011;18319;48.974;8.462;2023-02-26T08:22:45;3.47;;;1.77;;
31746;SDS011;18319;48.974;8.462;2023-02-26T08:25:12;2.43;;;2.20;;
31746;SDS011;18319;48.974;8.462;2023-02-26T08:27:39;3.50;;;1.93;;
31746;SDS011;18319;48.974;8.462;2023-02-26T08:30:06;3.43;;;2.50;;
31746;SDS011;18319;48.974;8.462;2023-02-26T08:32:35;3.67;;;2.07;;
31746;SDS011;18319;48.974;8.462;2023-02-26T08:35:03;2.60;;;2.40;;
31746;SDS011;18319;48.974;8.462;2023-02-26T08:37:32;2.60;;;2.40;;
31746;SDS011;18319;48.974;8.462;2023-02-26T08:39:59;3.93;;;2.33;;
31746;SDS011;18319;48.974;8.462;2023-02-26T08:42:25;2.23;;;1.90;;
31746;SDS011;18319;48.974;8.462;2023-02-26T08:44:52;3.47;;;1.90;;
31746;SDS011;18319;48.974;8.462;2023-02-26T08:47:19;3.73;;;2.20;;
31746;SDS011;18319;48.974;8.462;2023-02-26T08:49:46;2.70;;;2.00;;
31746;SDS011;18319;48.974;8.462;2023-02-26T08:52:12;2.57;;;2.37;;
31746;SDS011;18319;48.974;8.462;2023-02-26T08:54:41;2.50;;;1.60;;
31746;SDS011;18319;48.974;8.462;2023-02-26T08:57:07;3.50;;;1.70;;
31746;SDS011;18319;48.974;8.462;2023-02-26T08:59:34;6.33;;;2.00;;
31746;SDS011;18319;48.974;8.462;2023-02-26T09:02:01;2.50;;;1.93;;
31746;SDS011;18319;48.974;8.462;2023-02-26T09:04:28;1.70;;;1.60;;
31746;SDS011;18319;48.974;8.462;2023-02-26T09:06:54;5.13;;;1.80;;
31746;SDS011;18319;48.974;8.462;2023-02-26T09:09:21;3.03;;;1.17;;
31746;SDS011;18319;48.974;8.462;2023-02-26T09:11:49;3.40;;;1.40;;
31746;SDS011;18319;48.974;8.462;2023-02-26T09:14:16;3.57;;;1.20;;
31746;SDS011;18319;48.974;8.462;2023-02-26T09:16:43;1.20;;;1.10;;
31746;SDS011;18319;48.974;8.462;2023-02-26T09:19:10;1.57;;;1.47;;
31746;SDS011;18319;48.974;8.462;2023-02-26T09:21:36;1.97;;;1.23;;
31746;SDS011;18319;48.974;8.462;2023-02-26T09:24:03;2.47;;;1.60;;
31746;SDS011;18319;48.974;8.462;2023-02-26T09:26:31;2.60;;;1.00;;
31746;SDS011;18319;48.974;8.462;2023-02-26T09:28:59;3.90;;;1.57;;
31746;SDS011;18319;48.974;8.462;2023-02-26T09:31:26;1.63;;;0.87;;
31746;SDS011;18319;48.974;8.462;2023-02-26T09:33:53;2.53;;;1.60;;
31746;SDS011;18319;48.974;8.462;2023-02-26T09:36:19;1.07;;;1.07;;
31746;SDS011;18319;48.974;8.462;2023-02-26T09:38:46;1.83;;;0.90;;
31746;SDS011;18319;48.974;8.462;2023-02-26T09:41:15;0.97;;;0.90;;
31746;SDS011;18319;48.974;8.462;2023-02-26T09:43:53;1.40;;;0.97;;
31746;SDS011;18319;48.974;8.462;2023-02-26T09:46:31;4.33;;;1.00;;
31746;SDS011;18319;48.974;8.462;2023-02-26T09:49:06;1.10;;;1.10;;
31746;SDS011;18319;48.974;8.462;2023-02-26T09:51:43;2.60;;;1.00;;
31746;SDS011;18319;48.974;8.462;2023-02-26T09:54:14;2.07;;;1.00;;
31746;SDS011;18319;48.974;8.462;2023-02-26T09:56:44;2.77;;;1.00;;
31746;SDS011;18319;48.974;8.462;2023-02-26T09:59:13;1.63;;;0.87;;
31746;SDS011;18319;48.974;8.462;2023-02-26T10:01:42;0.90;;;0.90;;
31746;SDS011;18319;48.974;8.462;2023-02-26T10:04:16;2.30;;;1.40;;
31746;SDS011;18319;48.974;8.462;2023-02-26T10:06:53;2.83;;;1.00;;
31746;SDS011;18319;48.974;8.462;2023-02-26T10:09:29;1.20;;;1.07;;
31746;SDS011;18319;48.974;8.462;2023-02-26T10:12:06;1.47;;;1.17;;
31746;SDS011;18319;48.974;8.462;2023-02-26T10:14:40;0.80;;;0.80;;
31746;SDS011;18319;48.974;8.462;2023-02-26T10:17:11;2.03;;;1.20;;
31746;SDS011;18319;48.974;8.462;2023-02-26T10:19:46;2.50;;;1.23;;
31746;SDS011;18319;48.974;8.462;2023-02-26T10:22:19;2.20;;;1.13;;
31746;SDS011;18319;48.974;8.462;2023-02-26T10:24:53;1.03;;;1.00;;
31746;SDS011;18319;48.974;8.462;2023-02-26T10:27:25;1.40;;;1.03;;
31746;SDS011;18319;48.974;8.462;2023-02-26T10:30:05;3.60;;;1.27;;
31746;SDS011;18319;48.974;8.462;2023-02-26T10:32:36;4.50;;;1.27;;
31746;SDS011;18319;48.974;8.462;2023-02-26T10:35:08;1.57;;;1.47;;
31746;SDS011;18319;48.974;8.462;2023-02-26T10:37:42;1.27;;;1.27;;
31746;SDS011;18319;48.974;8.462;2023-02-26T10:40:13;1.63;;;1.53;;
31746;SDS011;18319;48.974;8.462;2023-02-26T10:42:45;1.30;;;1.00;;
31746;SDS011;18319;48.974;8.462;2023-02-26T10:45:21;1.10;;;1.03;;
31746;SDS011;18319;48.974;8.462;2023-02-26T10:48:12;1.33;;;1.10;;
31746;SDS011;18319;48.974;8.462;2023-02-26T10:50:50;1.40;;;1.00;;
31746;SDS011;18319;48.974;8.462;2023-02-26T10:53:18;0.77;;;0.77;;
31746;SDS011;18319;48.974;8.462;2023-02-26T10:55:47;1.23;;;0.90;;
31746;SDS011;18319;48.974;8.462;2023-02-26T10:58:18;0.93;;;0.73;;
31746;SDS011;18319;48.974;8.462;2023-02-26T11:00:49;1.07;;;0.67;;
31746;SDS011;18319;48.974;8.462;2023-02-26T11:03:18;1.20;;;1.10;;
31746;SDS011;18319;48.974;8.462;2023-02-26T11:05:46;0.83;;;0.83;;
31746;SDS011;18319;48.974;8.462;2023-02-26T11:08:15;0.60;;;0.60;;
31746;SDS011;18319;48.974;8.462;2023-02-26T11:10:47;1.23;;;0.80;;
31746;SDS011;18319;48.974;8.462;2023-02-26T11:13:17;0.67;;;0.67;;
31746;SDS011;18319;48.974;8.462;2023-02-26T11:15:45;2.13;;;0.70;;
31746;SDS011;18319;48.974;8.462;2023-02-26T11:18:17;0.50;;;0.50;;
31746;SDS011;18319;48.974;8.462;2023-02-26T11:20:48;1.03;;;0.70;;
31746;SDS011;18319;48.974;8.462;2023-02-26T11:23:20;0.70;;;0.70;;
31746;SDS011;18319;48.974;8.462;2023-02-26T11:25:51;3.77;;;0.80;;
31746;SDS011;18319;48.974;8.462;2023-02-26T11:28:20;1.03;;;0.80;;
31746;SDS011;18319;48.974;8.462;2023-02-26T11:30:49;0.90;;;0.90;;
31746;SDS011;18319;48.974;8.462;2023-02-26T11:33:22;2.30;;;0.57;;
31746;SDS011;18319;48.974;8.462;2023-02-26T11:35:53;0.70;;;0.67;;
31746;SDS011;18319;48.974;8.462;2023-02-26T11:38:24;1.00;;;0.90;;
31746;SDS011;18319;48.974;8.462;2023-02-26T11:40:53;0.70;;;0.70;;
31746;SDS011;18319;48.974;8.462;2023-02-26T11:43:22;0.70;;;0.70;;
31746;SDS011;18319;48.974;8.462;2023-02-26T11:45:52;0.97;;;0.97;;
31746;SDS011;18319;48.974;8.462;2023-02-26T11:48:24;1.63;;;0.93;;
31746;SDS011;18319;48.974;8.462;2023-02-26T11:50:55;0.67;;;0.67;;
31746;SDS011;18319;48.974;8.462;2023-02-26T11:53:29;1.00;;;0.90;;
31746;SDS011;18319;48.974;8.462;2023-02-26T11:55:58;0.67;;;0.60;;
31746;SDS011;18319;48.974;8.462;2023-02-26T11:58:28;1.13;;;0.90;;
31746;SDS011;18319;48.974;8.462;2023-02-26T12:01:01;0.63;;;0.63;;
31746;SDS011;18319;48.974;8.462;2023-02-26T12:03:31;1.13;;;1.13;;
31746;SDS011;18319;48.974;8.462;2023-02-26T12:06:04;1.10;;;0.97;;
31746;SDS011;18319;48.974;8.462;2023-02-26T12:08:33;0.80;;;0.40;;
31746;SDS011;18319;48.974;8.462;2023-02-26T12:14:08;0.60;;;0.60;;
31746;SDS011;18319;48.974;8.462;2023-02-26T12:16:52;0.83;;;0.77;;
31746;SDS011;18319;48.974;8.462;2023-02-26T12:19:29;2.40;;;0.87;;
31746;SDS011;18319;48.974;8.462;2023-02-26T12:22:18;0.87;;;0.80;;
31746;SDS011;18319;48.974;8.462;2023-02-26T12:25:10;0.70;;;0.70;;
31746;SDS011;18319;48.974;8.462;2023-02-26T12:27:51;0.53;;;0.53;;
31746;SDS011;18319;48.974;8.462;2023-02-26T12:30:37;0.90;;;0.90;;
31746;SDS011;18319;48.974;8.462;2023-02-26T12:33:17;0.43;;;0.43;;
31746;SDS011;18319;48.974;8.462;2023-02-26T12:35:57;0.80;;;0.80;;
31746;SDS011;18319;48.974;8.462;2023-02-26T12:38:33;0.57;;;0.53;;
31746;SDS011;18319;48.974;8.462;2023-02-26T12:44:06;2.47;;;0.60;;
31746;SDS011;18319;48.974;8.462;2023-02-26T12:46:48;0.40;;;0.40;;
31746;SDS011;18319;48.974;8.462;2023-02-26T12:49:30;0.77;;;0.60;;
31746;SDS011;18319;48.974;8.462;2023-02-26T12:52:15;1.00;;;0.80;;
31746;SDS011;18319;48.974;8.462;2023-02-26T12:55:02;0.77;;;0.60;;
31746;SDS011;18319;48.974;8.462;2023-02-26T12:57:46;1.23;;;0.60;;
31746;SDS011;18319;48.974;8.462;2023-02-26T13:00:38;1.90;;;1.80;;
31746;SDS011;18319;48.974;8.462;2023-02-26T13:06:15;0.60;;;0.60;;
31746;SDS011;18319;48.974;8.462;2023-02-26T13:09:16;1.43;;;1.43;;
31746;SDS011;18319;48.974;8.462;2023-02-26T13:11:58;0.90;;;0.90;;
31746;SDS011;18319;48.974;8.462;2023-02-26T13:14:34;0.80;;;0.67;;
31746;SDS011;18319;48.974;8.462;2023-02-26T13:19:43;0.73;;;0.73;;
31746;SDS011;18319;48.974;8.462;2023-02-26T13:22:14;0.67;;;0.67;;
31746;SDS011;18319;48.974;8.462;2023-02-26T13:24:49;0.73;;;0.70;;
31746;SDS011;18319;48.974;8.462;2023-02-26T13:27:20;0.90;;;0.90;;
31746;SDS011;18319;48.974;8.462;2023-02-26T13:29:52;0.70;;;0.70;;
31746;SDS011;18319;48.974;8.462;2023-02-26T13:32:28;1.17;;;0.60;;
31746;SDS011;18319;48.974;8.462;2023-02-26T13:34:59;0.60;;;0.60;;
31746;SDS011;18319;48.974;8.462;2023-02-26T13:37:30;0.83;;;0.70;;
31746;SDS011;18319;48.974;8.462;2023-02-26T13:40:04;0.60;;;0.60;;
31746;SDS011;18319;48.974;8.462;2023-02-26T13:42:56;0.60;;;0.60;;
31746;SDS011;18319;48.974;8.462;2023-02-26T13:45:33;0.60;;;0.60;;
31746;SDS011;18319;48.974;8.462;2023-02-26T13:48:12;0.57;;;0.57;;
31746;SDS011;18319;48.974;8.462;2023-02-26T13:50:49;0.47;;;0.47;;
31746;SDS011;18319;48.974;8.462;2023-02-26T13:53:41;0.67;;;0.67;;
31746;SDS011;18319;48.974;8.462;2023-02-26T13:56:19;0.40;;;0.40;;
31746;SDS011;18319;48.974;8.462;2023-02-26T13:58:48;0.60;;;0.60;;
31746;SDS011;18319;48.974;8.462;2023-02-26T14:01:18;0.83;;;0.50;;
31746;SDS011;18319;48.974;8.462;2023-02-26T14:03:52;0.50;;;0.50;;
31746;SDS011;18319;48.974;8.462;2023-02-26T14:06:37;0.70;;;0.60;;
31746;SDS011;18319;48.974;8.462;2023-02-26T14:12:13;2.73;;;0.60;;
31746;SDS011;18319;48.974;8.462;2023-02-26T14:18:02;0.37;;;0.37;;
31746;SDS011;18319;48.974;8.462;2023-02-26T14:20:31;0.77;;;0.63;;
31746;SDS011;18319;48.974;8.462;2023-02-26T14:23:10;4.43;;;2.07;;
31746;SDS011;18319;48.974;8.462;2023-02-26T14:25:53;0.57;;;0.50;;
31746;SDS011;18319;48.974;8.462;2023-02-26T14:28:31;0.90;;;0.90;;
31746;SDS011;18319;48.974;8.462;2023-02-26T14:31:14;1.00;;;0.50;;
31746;SDS011;18319;48.974;8.462;2023-02-26T14:33:44;0.50;;;0.50;;
31746;SDS011;18319;48.974;8.462;2023-02-26T14:36:14;0.50;;;0.50;;
31746;SDS011;18319;48.974;8.462;2023-02-26T14:38:45;0.57;;;0.57;;
31746;SDS011;18319;48.974;8.462;2023-02-26T14:41:18;1.37;;;1.00;;
31746;SDS011;18319;48.974;8.462;2023-02-26T14:43:54;1.13;;;1.03;;
31746;SDS011;18319;48.974;8.462;2023-02-26T14:46:25;0.43;;;0.43;;
31746;SDS011;18319;48.974;8.462;2023-02-26T14:48:52;0.60;;;0.40;;
31746;SDS011;18319;48.974;8.462;2023-02-26T14:51:21;0.30;;;0.30;;
31746;SDS011;18319;48.974;8.462;2023-02-26T14:54:03;0.73;;;0.50;;
31746;SDS011;18319;48.974;8.462;2023-02-26T14:56:47;0.63;;;0.60;;
31746;SDS011;18319;48.974;8.462;2023-02-26T14:59:27;1.60;;;1.50;;
31746;SDS011;18319;48.974;8.462;2023-02-26T15:02:13;0.60;;;0.60;;
31746;SDS011;18319;48.974;8.462;2023-02-26T15:04:56;0.50;;;0.50;;
31746;SDS011;18319;48.974;8.462;2023-02-26T15:07:46;0.50;;;0.50;;
31746;SDS011;18319;48.974;8.462;2023-02-26T15:10:26;0.40;;;0.40;;
31746;SDS011;18319;48.974;8.462;2023-02-26T15:13:17;0.53;;;0.53;;
31746;SDS011;18319;48.974;8.462;2023-02-26T15:15:59;0.50;;;0.50;;
31746;SDS011;18319;48.974;8.462;2023-02-26T15:18:38;0.50;;;0.50;;
31746;SDS011;18319;48.974;8.462;2023-02-26T15:21:16;0.70;;;0.60;;
31746;SDS011;18319;48.974;8.462;2023-02-26T15:23:51;0.60;;;0.60;;
31746;SDS011;18319;48.974;8.462;2023-02-26T15:26:19;0.83;;;0.40;;
31746;SDS011;18319;48.974;8.462;2023-02-26T15:28:48;0.40;;;0.40;;
31746;SDS011;18319;48.974;8.462;2023-02-26T15:31:19;0.73;;;0.53;;
31746;SDS011;18319;48.974;8.462;2023-02-26T15:33:54;0.50;;;0.50;;